Time;durP1;ratioP1;P1;durP2;ratioP2;P2;SDS_P1;SDS_P2;PMS_P1;PMS_P2;Temp;Humidity;BMP_temperature;BMP_pressure;BME280_temperature;BME280_humidity;BME280_pressure;Samples;Min_cycle;Max_cycle;Signal;HPM_P1;HPM_P2
2021/08/30 00:01:13;;;;;;;4.47;3.60;;;12.70;99.90;;;;;;5097181;28;20036;-76
2021/08/30 00:03:39;;;;;;;5.93;3.55;;;12.80;99.90;;;;;;5097262;28;20349;-76
2021/08/30 00:06:05;;;;;;;4.85;3.28;;;12.80;99.90;;;;;;5096965;28;20356;-77
2021/08/30 00:08:31;;;;;;;3.95;3.17;;;12.70;99.90;;;;;;5096824;28;20469;-76
2021/08/30 00:10:56;;;;;;;4.82;3.35;;;12.70;99.90;;;;;;5097015;28;20038;-77
2021/08/30 00:13:22;;;;;;;5.72;3.60;;;12.70;99.90;;;;;;5096946;28;20031;-77
2021/08/30 00:15:47;;;;;;;4.60;3.60;;;12.70;99.90;;;;;;5096614;28;20020;-77
2021/08/30 00:18:13;;;;;;;6.05;3.05;;;12.80;99.90;;;;;;5096727;28;20081;-77
2021/08/30 00:20:39;;;;;;;3.95;3.35;;;12.70;99.90;;;;;;5096500;28;20028;-76
2021/08/30 00:23:05;;;;;;;4.43;3.80;;;12.80;99.90;;;;;;5096837;28;20035;-77
2021/08/30 00:25:30;;;;;;;5.47;3.45;;;12.80;99.90;;;;;;5096738;28;20158;-76
2021/08/30 00:27:56;;;;;;;3.47;3.08;;;12.80;99.90;;;;;;5097058;28;20020;-77
2021/08/30 00:30:21;;;;;;;4.82;3.25;;;12.80;99.90;;;;;;5096294;28;20040;-77
2021/08/30 00:32:47;;;;;;;3.70;3.20;;;12.80;99.90;;;;;;5096325;28;20026;-77
2021/08/30 00:35:13;;;;;;;3.88;3.30;;;12.80;99.90;;;;;;5096248;28;20385;-76
2021/08/30 00:37:38;;;;;;;3.83;2.78;;;12.80;99.90;;;;;;5096449;28;20021;-76
2021/08/30 00:40:06;;;;;;;4.43;3.10;;;12.80;99.90;;;;;;5096251;28;20032;-76
2021/08/30 00:42:32;;;;;;;4.13;2.67;;;12.70;99.90;;;;;;5096192;28;20027;-77
2021/08/30 00:45:00;;;;;;;4.18;2.65;;;12.70;99.90;;;;;;5096434;28;20523;-77
2021/08/30 00:47:26;;;;;;;3.40;2.70;;;12.70;99.90;;;;;;5096431;28;20448;-77
2021/08/30 00:49:53;;;;;;;3.47;2.92;;;12.80;99.90;;;;;;5096097;28;20026;-76
2021/08/30 00:52:19;;;;;;;4.50;2.67;;;12.70;99.90;;;;;;5077923;28;20024;-76
2021/08/30 00:54:45;;;;;;;3.55;2.55;;;12.70;99.90;;;;;;5096604;28;20434;-77
2021/08/30 00:57:10;;;;;;;3.42;2.33;;;12.80;99.90;;;;;;5096385;28;20110;-76
2021/08/30 00:59:40;;;;;;;4.03;2.67;;;12.80;99.90;;;;;;5074646;28;20067;-76
2021/08/30 01:02:07;;;;;;;4.15;2.38;;;12.80;99.90;;;;;;5074193;28;20035;-76
2021/08/30 01:04:32;;;;;;;2.83;2.22;;;12.70;99.90;;;;;;5093117;28;20031;-77
2021/08/30 01:07:13;;;;;;;3.35;2.40;;;12.80;99.90;;;;;;5078021;28;20017;-77
2021/08/30 01:09:57;;;;;;;3.83;2.50;;;12.70;99.90;;;;;;5077464;28;20048;-77
2021/08/30 01:12:26;;;;;;;2.72;2.10;;;12.70;99.90;;;;;;5077606;28;20027;-77
2021/08/30 01:15:06;;;;;;;4.93;2.50;;;12.70;99.90;;;;;;5077836;28;20020;-77
2021/08/30 01:17:35;;;;;;;5.22;2.90;;;12.70;99.90;;;;;;5095637;28;20016;-76
2021/08/30 01:20:17;;;;;;;3.92;2.70;;;12.70;99.90;;;;;;5095683;28;20025;-76
2021/08/30 01:22:45;;;;;;;3.72;2.90;;;12.70;99.90;;;;;;5095611;28;20024;-76
2021/08/30 01:25:15;;;;;;;3.83;2.58;;;12.70;99.90;;;;;;5077149;28;20069;-76
2021/08/30 01:27:43;;;;;;;5.07;2.80;;;12.60;99.90;;;;;;5095508;28;20020;-76
2021/08/30 01:30:12;;;;;;;3.72;2.53;;;12.70;99.90;;;;;;5094970;28;20040;-76
2021/08/30 01:32:40;;;;;;;5.03;2.63;;;12.60;99.90;;;;;;5077088;28;20028;-76
2021/08/30 01:35:10;;;;;;;4.78;2.55;;;12.60;99.90;;;;;;5095205;28;20024;-77
2021/08/30 01:37:38;;;;;;;5.10;2.83;;;12.60;99.90;;;;;;5095112;28;20031;-77
2021/08/30 01:40:06;;;;;;;4.88;2.67;;;12.70;99.90;;;;;;5094981;28;20028;-77
2021/08/30 01:42:34;;;;;;;3.17;2.40;;;12.70;99.90;;;;;;5077282;28;20023;-77
2021/08/30 01:45:01;;;;;;;3.50;2.50;;;12.70;99.90;;;;;;5083107;28;20367;-76
2021/08/30 01:47:28;;;;;;;5.60;2.80;;;12.70;99.90;;;;;;5073498;28;20028;-77
2021/08/30 01:50:02;;;;;;;3.88;2.88;;;12.60;99.90;;;;;;5074700;28;20029;-77
2021/08/30 01:52:34;;;;;;;4.25;2.90;;;12.60;99.90;;;;;;5074896;28;20024;-76
2021/08/30 01:55:14;;;;;;;5.75;3.10;;;12.60;99.90;;;;;;5075104;28;20031;-76
2021/08/30 02:00:43;;;;;;;3.70;2.70;;;12.60;99.90;;;;;;5074720;28;20031;-76
2021/08/30 02:03:30;;;;;;;6.32;3.17;;;12.60;99.90;;;;;;5081484;28;20510;-76
2021/08/30 02:06:04;;;;;;;4.22;2.88;;;12.60;99.90;;;;;;5094686;28;20074;-76
2021/08/30 02:08:33;;;;;;;3.80;2.72;;;12.50;99.90;;;;;;5085330;28;20021;-76
2021/08/30 02:11:01;;;;;;;3.75;2.80;;;12.60;99.90;;;;;;5074437;28;20024;-77
2021/08/30 02:13:29;;;;;;;5.38;3.15;;;12.60;99.90;;;;;;5079937;28;20484;-77
2021/08/30 02:15:59;;;;;;;4.53;3.30;;;12.60;99.90;;;;;;5075868;28;20101;-76
2021/08/30 02:18:50;;;;;;;4.18;2.90;;;12.60;99.90;;;;;;5076192;28;20073;-77
2021/08/30 02:21:28;;;;;;;4.97;3.00;;;12.60;99.90;;;;;;5094408;28;20020;-77
2021/08/30 02:23:58;;;;;;;3.67;2.85;;;12.60;99.90;;;;;;5094486;28;20043;-77
2021/08/30 02:26:31;;;;;;;4.25;3.35;;;12.60;99.90;;;;;;5075943;28;20428;-77
2021/08/30 02:29:01;;;;;;;4.45;3.00;;;12.50;99.90;;;;;;5075743;28;20032;-76
2021/08/30 02:31:28;;;;;;;4.18;2.95;;;12.50;99.90;;;;;;5094333;28;20468;-77
2021/08/30 02:33:56;;;;;;;3.80;2.80;;;12.50;99.90;;;;;;5094138;28;20030;-77
2021/08/30 02:36:23;;;;;;;5.95;3.05;;;12.50;99.90;;;;;;5094044;28;20024;-77
2021/08/30 02:38:51;;;;;;;3.72;2.90;;;12.50;99.90;;;;;;5093902;28;20020;-77
2021/08/30 02:41:18;;;;;;;5.13;3.30;;;12.50;99.90;;;;;;5075522;28;20028;-76
2021/08/30 02:43:43;;;;;;;4.50;2.95;;;12.50;99.90;;;;;;5094114;28;20551;-77
2021/08/30 02:46:09;;;;;;;3.75;3.05;;;12.50;99.90;;;;;;5093884;28;20099;-76
2021/08/30 02:48:36;;;;;;;7.30;3.75;;;12.60;99.90;;;;;;5093769;28;20020;-76
2021/08/30 02:51:02;;;;;;;6.65;3.45;;;12.60;99.90;;;;;;5094046;28;20475;-76
2021/08/30 02:53:29;;;;;;;4.50;3.33;;;12.50;99.90;;;;;;5094811;28;20032;-81
2021/08/30 02:55:55;;;;;;;5.05;3.67;;;12.60;99.90;;;;;;5078193;28;20028;-81
2021/08/30 02:58:21;;;;;;;5.28;3.38;;;12.60;99.90;;;;;;5095510;28;20039;-82
2021/08/30 03:00:47;;;;;;;5.32;3.40;;;12.50;99.90;;;;;;5097523;28;20099;-82
2021/08/30 03:03:14;;;;;;;4.10;3.30;;;12.50;99.90;;;;;;5096554;28;20052;-81
2021/08/30 03:05:42;;;;;;;8.52;3.95;;;12.50;99.90;;;;;;5097373;28;20012;-82
2021/08/30 03:08:07;;;;;;;5.30;3.83;;;12.50;99.90;;;;;;5095750;28;20075;-80
2021/08/30 03:10:33;;;;;;;5.82;3.40;;;12.50;99.90;;;;;;5100887;28;20032;-80
2021/08/30 03:13:03;;;;;;;4.43;3.40;;;12.50;99.90;;;;;;5078232;28;20052;-80
2021/08/30 03:15:30;;;;;;;5.05;3.20;;;12.50;99.90;;;;;;5094986;28;20031;-80
2021/08/30 03:17:58;;;;;;;8.93;3.65;;;12.50;99.90;;;;;;5095170;28;20020;-80
2021/08/30 03:20:27;;;;;;;5.97;3.80;;;12.50;99.90;;;;;;5095795;28;20053;-80
2021/08/30 03:22:56;;;;;;;6.45;4.00;;;12.50;99.90;;;;;;5078343;28;20027;-79
2021/08/30 03:25:26;;;;;;;5.75;3.60;;;12.50;99.90;;;;;;5096311;28;20035;-80
2021/08/30 03:27:53;;;;;;;4.28;3.25;;;12.50;99.90;;;;;;5095350;28;20075;-80
2021/08/30 03:30:19;;;;;;;5.70;3.65;;;12.50;99.90;;;;;;5096078;28;20464;-80
2021/08/30 03:32:46;;;;;;;5.03;3.67;;;12.50;99.90;;;;;;5095714;28;20060;-80
2021/08/30 03:35:12;;;;;;;4.63;3.25;;;12.50;99.90;;;;;;5096473;28;20036;-81
2021/08/30 03:37:42;;;;;;;4.93;3.35;;;12.50;99.90;;;;;;5095586;28;20028;-80
2021/08/30 03:40:12;;;;;;;6.35;3.85;;;12.50;99.90;;;;;;5095600;28;20063;-80
2021/08/30 03:42:40;;;;;;;5.25;3.88;;;12.50;99.90;;;;;;5061370;28;20024;-79
2021/08/30 03:45:07;;;;;;;4.57;3.53;;;12.40;99.90;;;;;;5095825;28;20422;-80
2021/08/30 03:47:33;;;;;;;5.30;3.63;;;12.40;99.90;;;;;;5095592;28;20024;-80
2021/08/30 03:50:01;;;;;;;5.53;3.58;;;12.40;99.90;;;;;;5095215;28;20085;-80
2021/08/30 03:52:28;;;;;;;6.57;3.40;;;12.40;99.90;;;;;;5093067;28;20031;-77
2021/08/30 03:54:53;;;;;;;9.02;3.60;;;12.40;99.90;;;;;;5093161;28;20413;-77
2021/08/30 03:57:19;;;;;;;7.85;3.35;;;12.40;99.90;;;;;;5093157;28;20052;-77
2021/08/30 03:59:52;;;;;;;4.30;2.80;;;12.40;99.90;;;;;;5093021;28;20483;-77
2021/08/30 04:02:18;;;;;;;4.70;2.67;;;12.40;99.90;;;;;;5093312;28;20084;-78
2021/08/30 04:04:46;;;;;;;3.70;2.67;;;12.40;99.90;;;;;;5093128;28;20163;-77
2021/08/30 04:07:12;;;;;;;3.53;2.53;;;12.40;99.90;;;;;;5093163;28;20032;-78
2021/08/30 04:09:39;;;;;;;5.18;2.40;;;12.50;99.90;;;;;;5092976;28;20106;-77
2021/08/30 04:12:04;;;;;;;5.45;2.33;;;12.40;99.90;;;;;;5092754;28;20165;-77
2021/08/30 04:14:31;;;;;;;3.20;2.20;;;12.40;99.90;;;;;;5092715;28;20028;-77
2021/08/30 04:16:57;;;;;;;3.10;2.22;;;12.40;99.90;;;;;;5092648;28;20028;-77
2021/08/30 04:19:22;;;;;;;4.82;2.13;;;12.50;99.90;;;;;;5093151;28;20530;-78
2021/08/30 04:21:48;;;;;;;3.78;2.47;;;12.40;99.90;;;;;;5093051;28;20076;-78
2021/08/30 04:24:13;;;;;;;4.97;2.30;;;12.40;99.90;;;;;;5093296;28;20032;-78
2021/08/30 04:26:39;;;;;;;4.50;2.28;;;12.50;99.90;;;;;;5093015;28;20540;-77
2021/08/30 04:29:05;;;;;;;4.13;2.30;;;12.40;99.90;;;;;;5093105;28;20063;-77
2021/08/30 04:31:32;;;;;;;3.35;2.65;;;12.40;99.90;;;;;;5092771;28;20081;-77
2021/08/30 04:33:58;;;;;;;4.63;2.85;;;12.40;99.90;;;;;;5092660;28;20024;-77
2021/08/30 04:36:23;;;;;;;4.18;2.65;;;12.40;99.90;;;;;;5092798;28;20024;-77
2021/08/30 04:38:50;;;;;;;3.45;2.30;;;12.40;99.90;;;;;;5075636;28;20495;-77
2021/08/30 04:41:16;;;;;;;5.43;2.33;;;12.50;99.90;;;;;;5096486;28;20461;-78
2021/08/30 04:43:43;;;;;;;4.35;2.50;;;12.50;99.90;;;;;;5094372;28;20020;-77
2021/08/30 04:46:08;;;;;;;3.45;2.40;;;12.50;99.90;;;;;;5076430;28;20100;-77
2021/08/30 04:48:34;;;;;;;5.38;2.63;;;12.40;99.90;;;;;;5076978;28;20060;-76
2021/08/30 04:51:00;;;;;;;2.97;2.58;;;12.50;99.90;;;;;;5075291;28;20031;-77
2021/08/30 04:53:26;;;;;;;9.13;3.20;;;12.50;99.90;;;;;;5076682;28;20449;-77
2021/08/30 04:55:52;;;;;;;4.15;2.00;;;12.60;99.90;;;;;;5074990;28;20021;-77
2021/08/30 04:58:17;;;;;;;3.72;2.67;;;12.60;99.90;;;;;;5090514;28;20054;-78
2021/08/30 05:00:43;;;;;;;5.65;2.30;;;12.50;99.90;;;;;;5089015;28;20025;-82
2021/08/30 05:03:08;;;;;;;3.40;2.47;;;12.50;99.90;;;;;;5086489;28;20033;-77
2021/08/30 05:05:34;;;;;;;3.67;2.50;;;12.50;99.90;;;;;;5093515;28;20024;-77
2021/08/30 05:08:00;;;;;;;5.97;2.83;;;12.50;99.90;;;;;;5094976;28;20036;-77
2021/08/30 05:10:27;;;;;;;3.47;2.85;;;12.50;99.90;;;;;;5093523;28;20081;-77
2021/08/30 05:12:53;;;;;;;3.80;2.60;;;12.50;99.90;;;;;;5076570;28;20088;-77
2021/08/30 05:15:18;;;;;;;3.28;2.50;;;12.50;99.90;;;;;;5083346;28;20115;-77
2021/08/30 05:17:44;;;;;;;3.35;2.28;;;12.50;99.90;;;;;;5088527;28;20473;-76
2021/08/30 05:20:10;;;;;;;3.72;2.45;;;12.50;99.90;;;;;;5075612;28;20461;-77
2021/08/30 05:22:36;;;;;;;3.50;2.80;;;12.50;99.90;;;;;;5076132;28;20032;-75
2021/08/30 05:25:02;;;;;;;4.30;2.53;;;12.50;99.90;;;;;;5075597;28;20025;-75
2021/08/30 05:27:28;;;;;;;2.58;2.10;;;12.50;99.90;;;;;;5089258;28;20016;-81
2021/08/30 05:29:54;;;;;;;3.72;2.20;;;12.50;99.90;;;;;;5098166;28;20032;-80
2021/08/30 05:32:21;;;;;;;2.95;2.20;;;12.40;99.90;;;;;;5099403;28;20030;-80
2021/08/30 05:34:46;;;;;;;2.40;2.00;;;12.40;99.90;;;;;;5099369;28;20028;-81
2021/08/30 05:37:12;;;;;;;2.58;1.90;;;12.50;99.90;;;;;;5100006;28;20043;-81
2021/08/30 05:39:37;;;;;;;2.40;1.98;;;12.60;99.90;;;;;;5103727;28;20038;-81
2021/08/30 05:42:03;;;;;;;1.98;1.77;;;12.60;99.90;;;;;;5099270;28;20027;-80
2021/08/30 05:44:29;;;;;;;2.58;1.70;;;12.60;99.90;;;;;;5097533;28;20510;-80
2021/08/30 05:46:54;;;;;;;1.90;1.70;;;12.60;99.90;;;;;;5098687;28;20023;-80
2021/08/30 05:49:20;;;;;;;3.63;2.63;;;12.70;99.90;;;;;;5093833;28;20644;-76
2021/08/30 05:51:47;;;;;;;1.85;1.65;;;12.70;99.90;;;;;;5090658;28;20071;-76
2021/08/30 05:54:13;;;;;;;3.47;1.67;;;12.70;99.90;;;;;;5091435;28;20463;-87
2021/08/30 05:56:38;;;;;;;2.85;1.92;;;12.70;99.90;;;;;;5090965;28;20400;-81
2021/08/30 05:59:04;;;;;;;2.38;1.60;;;12.70;99.90;;;;;;5077084;28;20024;-79
2021/08/30 06:01:29;;;;;;;2.15;1.60;;;12.70;99.90;;;;;;5075190;28;20500;-81
2021/08/30 06:03:55;;;;;;;2.05;1.60;;;12.60;99.90;;;;;;5083184;28;20150;-80
2021/08/30 06:06:21;;;;;;;2.28;1.58;;;12.70;99.90;;;;;;5083373;28;20044;-81
2021/08/30 06:08:46;;;;;;;1.90;1.40;;;12.60;99.90;;;;;;5081087;28;20028;-80
2021/08/30 06:11:12;;;;;;;1.70;1.40;;;12.70;99.90;;;;;;5078902;28;20051;-81
2021/08/30 06:13:38;;;;;;;1.90;1.30;;;12.80;99.90;;;;;;5081529;28;20046;-81
2021/08/30 06:16:03;;;;;;;2.30;1.60;;;12.70;99.90;;;;;;5075346;28;20386;-77
2021/08/30 06:18:29;;;;;;;1.90;1.50;;;12.60;99.90;;;;;;5086241;28;20110;-75
2021/08/30 06:20:55;;;;;;;2.95;1.30;;;12.60;99.90;;;;;;5093704;28;20043;-76
2021/08/30 06:23:20;;;;;;;2.25;1.40;;;12.70;99.90;;;;;;5093762;28;20344;-76
2021/08/30 06:25:46;;;;;;;2.65;1.13;;;12.60;99.90;;;;;;5085091;28;20031;-81
2021/08/30 06:28:12;;;;;;;1.55;1.27;;;12.60;99.90;;;;;;5058193;28;20704;-82
2021/08/30 06:30:38;;;;;;;1.50;1.40;;;12.60;99.90;;;;;;5078589;28;20705;-81
2021/08/30 06:33:04;;;;;;;1.95;1.20;;;12.60;99.90;;;;;;5058100;28;20032;-82
2021/08/30 06:35:30;;;;;;;1.70;1.40;;;12.60;99.90;;;;;;5071756;28;20094;-82
2021/08/30 06:37:56;;;;;;;1.90;1.40;;;12.60;99.90;;;;;;5072439;28;20035;-82
2021/08/30 06:40:23;;;;;;;2.80;1.38;;;12.60;99.90;;;;;;5070386;28;20032;-82
2021/08/30 06:42:49;;;;;;;2.88;1.17;;;12.60;99.90;;;;;;5072507;28;20016;-82
2021/08/30 06:45:15;;;;;;;2.65;1.40;;;12.60;99.90;;;;;;5071361;28;20552;-82
2021/08/30 06:47:42;;;;;;;1.63;1.30;;;12.60;99.90;;;;;;5078748;28;20028;-82
2021/08/30 06:50:09;;;;;;;1.73;1.38;;;12.60;99.90;;;;;;5074994;28;20081;-81
2021/08/30 06:52:34;;;;;;;2.88;1.38;;;12.60;99.90;;;;;;5065825;28;20119;-76
2021/08/30 06:55:01;;;;;;;3.53;1.58;;;12.70;99.90;;;;;;5091979;28;20099;-76
2021/08/30 06:57:31;;;;;;;2.25;1.60;;;12.60;99.90;;;;;;5091305;28;20017;-80
2021/08/30 06:59:56;;;;;;;1.75;1.30;;;12.60;99.90;;;;;;5078167;28;20522;-82
2021/08/30 07:02:22;;;;;;;1.70;1.25;;;12.70;99.90;;;;;;5076849;28;20036;-82
2021/08/30 07:04:48;;;;;;;1.83;1.30;;;12.70;99.90;;;;;;5063914;28;20028;-82
2021/08/30 07:07:14;;;;;;;1.45;1.20;;;12.70;99.90;;;;;;5073053;28;20038;-81
2021/08/30 07:09:39;;;;;;;2.50;1.20;;;12.70;99.90;;;;;;5077780;28;20028;-81
2021/08/30 07:12:05;;;;;;;1.80;1.23;;;12.70;99.90;;;;;;5057876;28;20089;-81
2021/08/30 07:14:31;;;;;;;1.95;1.50;;;12.70;99.90;;;;;;5075667;28;20369;-81
2021/08/30 07:16:56;;;;;;;1.75;1.30;;;12.70;99.90;;;;;;5070399;28;20028;-81
2021/08/30 07:19:22;;;;;;;3.75;1.55;;;12.70;99.90;;;;;;5079613;28;20034;-81
2021/08/30 07:21:47;;;;;;;2.60;1.58;;;12.70;99.90;;;;;;5083592;28;20035;-81
2021/08/30 07:24:13;;;;;;;2.55;1.35;;;12.70;99.90;;;;;;5083771;28;20051;-81
2021/08/30 07:26:38;;;;;;;2.97;1.40;;;12.70;99.90;;;;;;5086416;28;20024;-79
2021/08/30 07:29:04;;;;;;;2.17;1.17;;;12.70;99.90;;;;;;5085991;28;20056;-79
2021/08/30 07:31:30;;;;;;;2.60;1.35;;;12.70;99.90;;;;;;5086251;28;20039;-79
2021/08/30 07:33:56;;;;;;;1.52;1.02;;;12.70;99.90;;;;;;5086126;28;20036;-80
2021/08/30 07:36:22;;;;;;;2.22;1.20;;;12.70;99.90;;;;;;5087289;28;20108;-82
2021/08/30 07:38:48;;;;;;;1.85;1.40;;;12.70;99.90;;;;;;5086028;28;20114;-82
2021/08/30 07:41:13;;;;;;;1.40;1.00;;;12.70;99.90;;;;;;5085680;28;20089;-80
2021/08/30 07:43:39;;;;;;;2.35;1.25;;;12.70;99.90;;;;;;5085499;28;20090;-80
2021/08/30 07:46:05;;;;;;;2.63;1.35;;;12.80;99.90;;;;;;5087216;28;20117;-79
2021/08/30 07:48:30;;;;;;;2.10;1.23;;;12.80;99.90;;;;;;5086588;28;20774;-77
2021/08/30 07:50:56;;;;;;;1.02;0.95;;;12.80;99.90;;;;;;5093064;28;20024;-76
2021/08/30 07:53:27;;;;;;;1.90;1.23;;;12.90;99.90;;;;;;5092673;28;20058;-76
2021/08/30 07:55:54;;;;;;;2.88;1.23;;;12.90;99.90;;;;;;5093207;28;20074;-76
2021/08/30 07:58:20;;;;;;;1.30;1.08;;;13.00;99.90;;;;;;5097240;28;20023;-76
2021/08/30 08:00:45;;;;;;;3.53;1.40;;;13.10;99.90;;;;;;5109173;28;20528;-76
2021/08/30 08:03:11;;;;;;;1.42;1.00;;;13.10;99.90;;;;;;5089673;28;20029;-78
2021/08/30 08:05:36;;;;;;;1.63;1.15;;;13.20;99.90;;;;;;5082665;28;20111;-79
2021/08/30 08:08:04;;;;;;;2.63;1.20;;;13.20;99.90;;;;;;5082370;28;20016;-78
2021/08/30 08:10:30;;;;;;;3.28;1.25;;;13.20;99.90;;;;;;5085627;28;20085;-79
2021/08/30 08:12:55;;;;;;;1.98;1.35;;;13.30;99.90;;;;;;5090785;28;20036;-76
2021/08/30 08:15:21;;;;;;;1.67;1.27;;;13.40;99.90;;;;;;5097184;28;20149;-77
2021/08/30 08:17:47;;;;;;;2.30;1.40;;;13.60;99.90;;;;;;5096512;28;20036;-76
2021/08/30 08:20:14;;;;;;;2.53;1.13;;;13.80;99.90;;;;;;5078084;28;20028;-77
2021/08/30 08:22:41;;;;;;;1.63;1.23;;;14.00;99.90;;;;;;5114477;28;20020;-74
2021/08/30 08:25:07;;;;;;;2.20;1.10;;;14.10;99.90;;;;;;5096572;28;20016;-75
2021/08/30 08:27:34;;;;;;;1.23;1.00;;;14.20;99.90;;;;;;5094198;28;20035;-80
2021/08/30 08:29:59;;;;;;;2.00;0.93;;;14.30;99.90;;;;;;5093252;28;20508;-76
2021/08/30 08:32:25;;;;;;;1.05;0.90;;;14.20;99.90;;;;;;5096298;28;20021;-76
2021/08/30 08:34:51;;;;;;;1.25;0.90;;;14.10;99.90;;;;;;5096384;28;20500;-76
2021/08/30 08:37:17;;;;;;;1.30;1.00;;;14.10;99.90;;;;;;5092162;28;20652;-79
2021/08/30 08:39:45;;;;;;;7.88;1.33;;;14.00;99.90;;;;;;5075787;28;20024;-77
2021/08/30 08:42:10;;;;;;;1.60;0.90;;;14.00;99.90;;;;;;5060742;28;20032;-76
2021/08/30 08:44:36;;;;;;;1.63;0.90;;;13.90;99.90;;;;;;5079656;28;20371;-79
2021/08/30 08:47:02;;;;;;;1.65;0.90;;;13.80;99.90;;;;;;5073162;28;20047;-79
2021/08/30 08:49:28;;;;;;;1.33;0.82;;;13.90;99.90;;;;;;5070532;28;20487;-79
2021/08/30 08:51:53;;;;;;;1.38;1.10;;;13.90;99.90;;;;;;5074204;28;20371;-79
2021/08/30 08:54:19;;;;;;;1.33;0.80;;;14.00;99.90;;;;;;5079445;28;20028;-79
2021/08/30 08:56:44;;;;;;;1.85;0.80;;;14.00;99.90;;;;;;5088823;28;20028;-79
2021/08/30 08:59:10;;;;;;;2.88;0.80;;;14.10;99.90;;;;;;5088540;28;20074;-79
2021/08/30 09:01:37;;;;;;;1.25;0.90;;;14.20;99.90;;;;;;5095054;28;20326;-74
2021/08/30 09:04:04;;;;;;;0.68;0.68;;;14.10;99.90;;;;;;5101267;28;20041;-74
2021/08/30 09:06:39;;;;;;;1.67;0.93;;;14.10;99.90;;;;;;5099997;28;20479;-76
2021/08/30 09:09:07;;;;;;;1.00;0.80;;;14.10;99.90;;;;;;5094015;28;20570;-74
2021/08/30 09:11:43;;;;;;;0.70;0.70;;;14.20;99.90;;;;;;5095339;28;20032;-74
2021/08/30 09:14:27;;;;;;;0.98;0.80;;;14.30;99.90;;;;;;5095292;28;20032;-74
2021/08/30 09:17:05;;;;;;;2.67;1.10;;;14.50;99.90;;;;;;5095473;28;20031;-74
2021/08/30 09:19:33;;;;;;;1.52;1.00;;;14.60;99.90;;;;;;5095146;28;20028;-74
2021/08/30 09:21:59;;;;;;;1.77;1.17;;;14.80;99.90;;;;;;5090042;28;20036;-79
2021/08/30 09:24:26;;;;;;;1.38;0.95;;;14.90;99.90;;;;;;5067347;28;20036;-79
2021/08/30 09:26:57;;;;;;;1.80;1.20;;;14.90;99.90;;;;;;5087788;28;20039;-79
2021/08/30 09:29:28;;;;;;;1.67;1.00;;;14.90;99.90;;;;;;5088104;28;20067;-79
2021/08/30 09:32:03;;;;;;;1.50;0.98;;;15.10;99.90;;;;;;5088449;28;20454;-78
2021/08/30 09:34:33;;;;;;;2.08;1.10;;;15.10;99.90;;;;;;5088476;28;20179;-78
2021/08/30 09:37:01;;;;;;;2.47;1.10;;;15.20;99.90;;;;;;5088076;28;20527;-78
2021/08/30 09:39:27;;;;;;;1.98;0.90;;;15.10;99.90;;;;;;5080820;28;20064;-78
2021/08/30 09:41:53;;;;;;;2.00;0.90;;;15.10;99.90;;;;;;5082449;28;20053;-78
2021/08/30 09:44:23;;;;;;;1.05;0.80;;;15.10;99.90;;;;;;5076400;28;20503;-78
2021/08/30 09:46:49;;;;;;;1.25;1.00;;;15.10;99.90;;;;;;5081203;28;20016;-78
2021/08/30 09:49:15;;;;;;;2.25;1.40;;;15.00;99.90;;;;;;5072766;28;20028;-78
2021/08/30 09:51:40;;;;;;;1.85;1.10;;;14.90;99.90;;;;;;5071640;28;21183;-79
2021/08/30 09:54:07;;;;;;;3.17;1.35;;;14.90;99.90;;;;;;5078338;28;20024;-78
2021/08/30 09:56:37;;;;;;;1.75;0.98;;;15.00;99.90;;;;;;5081438;28;20032;-79
2021/08/30 09:59:06;;;;;;;1.20;1.00;;;15.20;99.90;;;;;;5083821;28;20480;-78
2021/08/30 10:01:39;;;;;;;1.50;0.95;;;15.30;99.90;;;;;;5087618;28;20027;-78
2021/08/30 10:04:06;;;;;;;1.52;1.08;;;15.40;99.90;;;;;;5087208;28;20027;-78
2021/08/30 10:06:37;;;;;;;2.10;1.30;;;15.50;99.90;;;;;;5087177;28;20047;-78
2021/08/30 10:09:10;;;;;;;1.88;1.33;;;15.60;99.90;;;;;;5086994;28;20020;-78
2021/08/30 10:11:36;;;;;;;1.55;1.25;;;15.50;99.90;;;;;;5087719;28;20087;-78
2021/08/30 10:14:03;;;;;;;1.50;1.10;;;15.40;99.90;;;;;;5087614;28;20089;-78
2021/08/30 10:16:29;;;;;;;1.25;1.08;;;15.30;99.90;;;;;;5087442;28;20085;-77
2021/08/30 10:18:55;;;;;;;2.53;1.05;;;15.40;99.90;;;;;;5087502;28;20107;-78
2021/08/30 10:21:21;;;;;;;2.55;1.10;;;15.40;99.90;;;;;;5087407;28;20079;-78
2021/08/30 10:23:48;;;;;;;2.55;1.17;;;15.30;99.90;;;;;;5089599;28;20051;-78
2021/08/30 10:26:14;;;;;;;2.05;1.30;;;15.30;99.90;;;;;;5091329;28;20471;-78
2021/08/30 10:28:43;;;;;;;2.42;1.30;;;15.20;99.90;;;;;;5093507;28;20490;-76
2021/08/30 10:31:23;;;;;;;3.13;1.40;;;15.10;99.90;;;;;;5094644;28;20107;-75
2021/08/30 10:33:54;;;;;;;1.50;1.20;;;15.10;99.90;;;;;;5094104;28;20036;-77
2021/08/30 10:36:23;;;;;;;1.88;1.30;;;15.00;99.90;;;;;;5094072;28;20096;-76
2021/08/30 10:39:03;;;;;;;2.05;1.33;;;14.90;99.90;;;;;;5094225;28;20032;-76
2021/08/30 10:41:40;;;;;;;1.80;1.30;;;14.90;99.90;;;;;;5079631;28;20032;-78
2021/08/30 10:44:14;;;;;;;3.15;1.50;;;14.90;99.90;;;;;;5077181;28;20024;-74
2021/08/30 10:46:55;;;;;;;3.57;1.40;;;15.00;99.90;;;;;;5094219;28;20379;-74
2021/08/30 10:49:30;;;;;;;2.83;1.50;;;15.10;99.90;;;;;;5063527;28;20107;-79
2021/08/30 10:52:06;;;;;;;2.17;1.40;;;15.20;99.90;;;;;;5078494;28;20028;-79
2021/08/30 10:54:32;;;;;;;1.85;1.40;;;15.30;99.90;;;;;;5087619;28;20040;-79
2021/08/30 10:57:00;;;;;;;2.33;1.50;;;15.30;99.90;;;;;;5086791;28;20419;-78
2021/08/30 10:59:28;;;;;;;2.28;1.63;;;15.40;99.90;;;;;;5087786;28;20491;-79
2021/08/30 11:01:56;;;;;;;1.73;1.35;;;15.40;99.90;;;;;;5096542;28;20028;-79
2021/08/30 11:04:39;;;;;;;1.30;1.15;;;15.50;99.90;;;;;;5081044;28;20028;-79
2021/08/30 11:07:07;;;;;;;1.77;1.30;;;15.70;99.90;;;;;;5073612;28;20112;-79
2021/08/30 11:09:34;;;;;;;1.73;1.00;;;15.90;99.90;;;;;;5073004;28;20020;-74
2021/08/30 11:12:10;;;;;;;3.47;1.30;;;16.10;99.90;;;;;;5053775;28;20784;-79
2021/08/30 11:14:36;;;;;;;2.08;1.40;;;16.20;99.90;;;;;;5073276;28;20066;-78
2021/08/30 11:17:03;;;;;;;2.20;1.60;;;16.30;99.90;;;;;;5071587;28;20066;-78
2021/08/30 11:19:29;;;;;;;1.33;1.20;;;16.30;99.90;;;;;;5071110;28;20834;-78
2021/08/30 11:21:59;;;;;;;1.77;1.30;;;16.50;99.90;;;;;;5079984;28;20161;-79
2021/08/30 11:24:28;;;;;;;1.80;1.23;;;16.60;99.90;;;;;;5085969;28;20020;-78
2021/08/30 11:26:56;;;;;;;1.98;1.30;;;16.80;99.90;;;;;;5068099;28;20719;-77
2021/08/30 11:29:22;;;;;;;2.15;1.30;;;16.80;99.90;;;;;;5086877;28;20040;-77
2021/08/30 11:31:48;;;;;;;2.75;1.15;;;16.90;99.90;;;;;;5071148;28;20405;-77
2021/08/30 11:34:31;;;;;;;2.45;1.20;;;17.10;99.90;;;;;;5087148;28;20041;-77
2021/08/30 11:37:00;;;;;;;1.42;1.10;;;17.30;99.90;;;;;;5068328;28;20040;-78
2021/08/30 11:39:28;;;;;;;1.60;1.20;;;17.40;99.90;;;;;;5087319;28;20020;-73
2021/08/30 11:42:00;;;;;;;1.45;1.10;;;17.60;99.90;;;;;;5088303;28;20496;-78
2021/08/30 11:44:30;;;;;;;1.60;1.10;;;17.90;99.90;;;;;;5074727;28;20028;-72
2021/08/30 11:46:58;;;;;;;1.38;0.93;;;18.10;99.90;;;;;;5111964;28;20406;-73
2021/08/30 11:49:25;;;;;;;2.40;1.20;;;18.20;99.90;;;;;;5118349;28;20471;-73
2021/08/30 11:51:53;;;;;;;1.35;1.02;;;18.40;99.90;;;;;;5120123;28;20027;-73
2021/08/30 11:54:32;;;;;;;1.10;1.00;;;18.20;99.90;;;;;;5120021;28;20024;-73
2021/08/30 11:57:01;;;;;;;1.02;0.70;;;18.00;99.90;;;;;;5120132;28;20023;-73
2021/08/30 11:59:33;;;;;;;0.70;0.70;;;17.80;99.90;;;;;;5120107;28;20027;-73
2021/08/30 12:01:59;;;;;;;1.75;1.23;;;17.20;99.90;;;;;;5101643;28;20035;-76
2021/08/30 12:04:30;;;;;;;1.00;0.90;;;16.70;99.90;;;;;;5084386;28;20024;-74
2021/08/30 12:07:00;;;;;;;4.95;1.17;;;16.30;99.90;;;;;;5079621;28;20017;-74
2021/08/30 12:09:42;;;;;;;1.40;1.23;;;16.00;99.90;;;;;;5079880;28;20385;-74
2021/08/30 12:12:15;;;;;;;1.20;0.90;;;15.70;99.90;;;;;;5080012;28;20028;-75
2021/08/30 12:14:40;;;;;;;1.02;0.90;;;15.40;99.90;;;;;;5079459;28;20029;-75
2021/08/30 12:17:06;;;;;;;1.52;1.40;;;15.30;99.90;;;;;;5078961;28;20115;-75
2021/08/30 12:19:32;;;;;;;3.65;2.63;;;15.20;99.90;;;;;;5079503;28;20021;-75
2021/08/30 12:21:58;;;;;;;1.38;1.05;;;15.10;99.90;;;;;;5085737;28;20115;-77
2021/08/30 12:24:24;;;;;;;2.05;0.93;;;15.10;99.90;;;;;;5092278;28;20028;-77
2021/08/30 12:26:51;;;;;;;2.42;1.10;;;15.10;99.90;;;;;;5079345;28;20023;-77
2021/08/30 12:29:18;;;;;;;1.23;1.10;;;15.00;99.90;;;;;;5095442;28;20038;-73
2021/08/30 12:31:52;;;;;;;1.77;1.25;;;15.00;99.90;;;;;;5099143;28;20070;-75
2021/08/30 12:34:23;;;;;;;1.50;1.05;;;15.00;99.90;;;;;;5080954;28;20332;-75
2021/08/30 12:36:49;;;;;;;1.70;1.40;;;15.00;99.90;;;;;;5081691;28;20036;-75
2021/08/30 12:39:14;;;;;;;3.10;2.10;;;15.00;99.90;;;;;;5099488;28;20398;-75
2021/08/30 12:41:40;;;;;;;2.10;1.23;;;15.10;99.90;;;;;;5099424;28;20036;-75
2021/08/30 12:44:06;;;;;;;1.52;1.10;;;15.20;99.90;;;;;;5099055;28;20471;-75
2021/08/30 12:46:31;;;;;;;1.90;1.10;;;15.30;99.90;;;;;;5099277;28;20031;-76
2021/08/30 12:48:59;;;;;;;1.33;1.10;;;15.20;99.90;;;;;;5081318;28;20392;-76
2021/08/30 12:51:25;;;;;;;1.45;1.15;;;15.30;99.90;;;;;;5099561;28;20119;-76
2021/08/30 12:53:51;;;;;;;2.33;1.40;;;15.30;99.90;;;;;;5099273;28;20111;-76